In Rescue
 
Open Full Screen Window  High Contrast Mode
Wind Gusting 00 knots
03
July 25, 2021 9:37 AM EDT
Weather Information
Wind Direction
  220 °
Wind Speed
  03 kt (3 mph)
Wind Gust
  00 kt (0 mph)
Altimeter
29.93 in
Visibility
10 SM
Temperature
25° C
77° F
Dewpoint
22° C
72° F
Humidity
83%
Sky Condition
Scattered @ 6,000 ft
VFR

METAR KVLL 251337Z AUTO 22003KT 10SM SCT060 25/22 A2993 RMK AO2 T02450223

FAA Disclaimer: The data displayed is for advisory purposes only and is not to be used for flight planning or operations.